sensor_id;sensor_type;location;lat;lon;timestamp;P1;durP1;ratioP1;P2;durP2;ratioP2
44456;SDS011;30159;49.316;8.558;2023-05-29T00:02:07;2.30;;;1.83;;
44456;SDS011;30159;49.316;8.558;2023-05-29T00:04:34;2.50;;;2.03;;
44456;SDS011;30159;49.316;8.558;2023-05-29T00:07:02;2.47;;;1.67;;
44456;SDS011;30159;49.316;8.558;2023-05-29T00:09:29;1.97;;;1.70;;
44456;SDS011;30159;49.316;8.558;2023-05-29T00:11:55;2.10;;;1.70;;
44456;SDS011;30159;49.316;8.558;2023-05-29T00:14:23;3.43;;;1.83;;
44456;SDS011;30159;49.316;8.558;2023-05-29T00:16:51;2.00;;;1.90;;
44456;SDS011;30159;49.316;8.558;2023-05-29T00:19:17;2.40;;;2.20;;
44456;SDS011;30159;49.316;8.558;2023-05-29T00:21:44;2.80;;;2.00;;
44456;SDS011;30159;49.316;8.558;2023-05-29T00:24:12;1.83;;;1.70;;
44456;SDS011;30159;49.316;8.558;2023-05-29T00:26:39;4.03;;;1.80;;
44456;SDS011;30159;49.316;8.558;2023-05-29T00:29:06;1.70;;;1.60;;
44456;SDS011;30159;49.316;8.558;2023-05-29T00:31:34;2.07;;;1.70;;
44456;SDS011;30159;49.316;8.558;2023-05-29T00:34:01;1.67;;;1.50;;
44456;SDS011;30159;49.316;8.558;2023-05-29T00:36:28;2.57;;;1.50;;
44456;SDS011;30159;49.316;8.558;2023-05-29T00:38:54;2.03;;;1.90;;
44456;SDS011;30159;49.316;8.558;2023-05-29T00:41:21;1.70;;;1.60;;
44456;SDS011;30159;49.316;8.558;2023-05-29T00:43:47;3.10;;;1.60;;
44456;SDS011;30159;49.316;8.558;2023-05-29T00:46:14;2.30;;;1.77;;
44456;SDS011;30159;49.316;8.558;2023-05-29T00:48:43;1.97;;;1.70;;
44456;SDS011;30159;49.316;8.558;2023-05-29T00:51:10;2.13;;;1.93;;
44456;SDS011;30159;49.316;8.558;2023-05-29T00:53:38;2.27;;;2.07;;
44456;SDS011;30159;49.316;8.558;2023-05-29T00:56:06;4.17;;;2.30;;
44456;SDS011;30159;49.316;8.558;2023-05-29T00:58:33;2.53;;;2.27;;
44456;SDS011;30159;49.316;8.558;2023-05-29T01:01:00;3.70;;;2.50;;
44456;SDS011;30159;49.316;8.558;2023-05-29T01:03:28;2.40;;;2.17;;
44456;SDS011;30159;49.316;8.558;2023-05-29T01:05:58;2.47;;;2.27;;
44456;SDS011;30159;49.316;8.558;2023-05-29T01:08:25;1.70;;;1.60;;
44456;SDS011;30159;49.316;8.558;2023-05-29T01:10:52;3.07;;;2.87;;
44456;SDS011;30159;49.316;8.558;2023-05-29T01:13:23;2.33;;;2.20;;
44456;SDS011;30159;49.316;8.558;2023-05-29T01:15:57;2.40;;;2.20;;
44456;SDS011;30159;49.316;8.558;2023-05-29T01:18:31;4.13;;;1.90;;
44456;SDS011;30159;49.316;8.558;2023-05-29T01:21:08;3.33;;;3.03;;
44456;SDS011;30159;49.316;8.558;2023-05-29T01:23:50;2.83;;;1.60;;
44456;SDS011;30159;49.316;8.558;2023-05-29T01:26:42;2.60;;;1.70;;
44456;SDS011;30159;49.316;8.558;2023-05-29T01:29:13;2.80;;;2.07;;
44456;SDS011;30159;49.316;8.558;2023-05-29T01:31:41;3.10;;;2.00;;
44456;SDS011;30159;49.316;8.558;2023-05-29T01:34:09;2.90;;;2.10;;
44456;SDS011;30159;49.316;8.558;2023-05-29T01:36:36;2.93;;;2.20;;
44456;SDS011;30159;49.316;8.558;2023-05-29T01:39:02;2.37;;;2.20;;
44456;SDS011;30159;49.316;8.558;2023-05-29T01:41:30;3.67;;;2.33;;
44456;SDS011;30159;49.316;8.558;2023-05-29T01:44:00;2.80;;;2.00;;
44456;SDS011;30159;49.316;8.558;2023-05-29T01:46:31;3.10;;;2.90;;
44456;SDS011;30159;49.316;8.558;2023-05-29T01:48:58;2.47;;;2.07;;
44456;SDS011;30159;49.316;8.558;2023-05-29T01:51:24;3.33;;;2.70;;
44456;SDS011;30159;49.316;8.558;2023-05-29T01:53:51;2.97;;;2.67;;
44456;SDS011;30159;49.316;8.558;2023-05-29T01:56:18;3.40;;;2.40;;
44456;SDS011;30159;49.316;8.558;2023-05-29T01:58:45;5.83;;;2.57;;
44456;SDS011;30159;49.316;8.558;2023-05-29T02:01:14;3.40;;;2.37;;
44456;SDS011;30159;49.316;8.558;2023-05-29T02:03:41;2.80;;;2.60;;
44456;SDS011;30159;49.316;8.558;2023-05-29T02:06:07;3.17;;;2.30;;
44456;SDS011;30159;49.316;8.558;2023-05-29T02:08:35;6.03;;;2.50;;
44456;SDS011;30159;49.316;8.558;2023-05-29T02:11:02;2.70;;;2.50;;
44456;SDS011;30159;49.316;8.558;2023-05-29T02:13:28;6.40;;;2.40;;
44456;SDS011;30159;49.316;8.558;2023-05-29T02:15:55;4.77;;;2.47;;
44456;SDS011;30159;49.316;8.558;2023-05-29T02:18:23;2.30;;;2.20;;
44456;SDS011;30159;49.316;8.558;2023-05-29T02:20:50;2.60;;;2.40;;
44456;SDS011;30159;49.316;8.558;2023-05-29T02:23:17;2.50;;;2.23;;
44456;SDS011;30159;49.316;8.558;2023-05-29T02:25:44;5.43;;;3.80;;
44456;SDS011;30159;49.316;8.558;2023-05-29T02:28:11;4.03;;;2.67;;
44456;SDS011;30159;49.316;8.558;2023-05-29T02:30:37;4.43;;;2.53;;
44456;SDS011;30159;49.316;8.558;2023-05-29T02:33:04;4.97;;;2.80;;
44456;SDS011;30159;49.316;8.558;2023-05-29T02:35:32;3.83;;;2.20;;
44456;SDS011;30159;49.316;8.558;2023-05-29T02:37:59;3.63;;;2.63;;
44456;SDS011;30159;49.316;8.558;2023-05-29T02:40:26;3.40;;;2.50;;
44456;SDS011;30159;49.316;8.558;2023-05-29T02:42:52;2.40;;;2.20;;
44456;SDS011;30159;49.316;8.558;2023-05-29T02:45:19;4.27;;;2.13;;
44456;SDS011;30159;49.316;8.558;2023-05-29T02:47:45;2.80;;;2.60;;
44456;SDS011;30159;49.316;8.558;2023-05-29T02:50:12;2.97;;;2.67;;
44456;SDS011;30159;49.316;8.558;2023-05-29T02:52:41;3.93;;;2.50;;
44456;SDS011;30159;49.316;8.558;2023-05-29T02:55:07;5.03;;;2.77;;
44456;SDS011;30159;49.316;8.558;2023-05-29T02:57:34;2.37;;;2.10;;
44456;SDS011;30159;49.316;8.558;2023-05-29T03:00:01;2.93;;;2.73;;
44456;SDS011;30159;49.316;8.558;2023-05-29T03:02:31;2.83;;;2.50;;
44456;SDS011;30159;49.316;8.558;2023-05-29T03:04:58;3.23;;;2.33;;
44456;SDS011;30159;49.316;8.558;2023-05-29T03:07:25;2.63;;;2.00;;
44456;SDS011;30159;49.316;8.558;2023-05-29T03:09:53;5.37;;;2.60;;
44456;SDS011;30159;49.316;8.558;2023-05-29T03:12:20;3.23;;;2.30;;
44456;SDS011;30159;49.316;8.558;2023-05-29T03:14:46;3.67;;;2.23;;
44456;SDS011;30159;49.316;8.558;2023-05-29T03:17:13;3.30;;;2.70;;
44456;SDS011;30159;49.316;8.558;2023-05-29T03:19:40;2.93;;;2.73;;
44456;SDS011;30159;49.316;8.558;2023-05-29T03:22:06;3.53;;;2.30;;
44456;SDS011;30159;49.316;8.558;2023-05-29T03:24:33;2.40;;;2.17;;
44456;SDS011;30159;49.316;8.558;2023-05-29T03:27:02;4.17;;;2.80;;
44456;SDS011;30159;49.316;8.558;2023-05-29T03:29:30;2.90;;;2.53;;
44456;SDS011;30159;49.316;8.558;2023-05-29T03:31:57;2.43;;;2.23;;
44456;SDS011;30159;49.316;8.558;2023-05-29T03:34:24;3.97;;;2.27;;
44456;SDS011;30159;49.316;8.558;2023-05-29T03:36:50;3.13;;;2.57;;
44456;SDS011;30159;49.316;8.558;2023-05-29T03:39:17;2.50;;;2.30;;
44456;SDS011;30159;49.316;8.558;2023-05-29T03:41:43;3.80;;;2.90;;
44456;SDS011;30159;49.316;8.558;2023-05-29T03:44:11;3.73;;;2.50;;
44456;SDS011;30159;49.316;8.558;2023-05-29T03:46:37;3.37;;;2.73;;
44456;SDS011;30159;49.316;8.558;2023-05-29T03:49:04;3.20;;;2.90;;
44456;SDS011;30159;49.316;8.558;2023-05-29T03:51:32;3.33;;;3.03;;
44456;SDS011;30159;49.316;8.558;2023-05-29T03:53:58;5.50;;;2.93;;
44456;SDS011;30159;49.316;8.558;2023-05-29T03:56:25;4.90;;;2.80;;
44456;SDS011;30159;49.316;8.558;2023-05-29T03:58:51;6.80;;;3.43;;
44456;SDS011;30159;49.316;8.558;2023-05-29T04:01:19;2.73;;;2.53;;
44456;SDS011;30159;49.316;8.558;2023-05-29T04:03:46;3.70;;;3.13;;
44456;SDS011;30159;49.316;8.558;2023-05-29T04:06:12;3.10;;;2.90;;
44456;SDS011;30159;49.316;8.558;2023-05-29T04:08:39;7.13;;;3.13;;
44456;SDS011;30159;49.316;8.558;2023-05-29T04:11:05;5.63;;;2.37;;
44456;SDS011;30159;49.316;8.558;2023-05-29T04:13:32;3.33;;;2.50;;
44456;SDS011;30159;49.316;8.558;2023-05-29T04:15:58;5.67;;;2.90;;
44456;SDS011;30159;49.316;8.558;2023-05-29T04:18:26;2.97;;;2.77;;
44456;SDS011;30159;49.316;8.558;2023-05-29T04:20:53;3.03;;;2.73;;
44456;SDS011;30159;49.316;8.558;2023-05-29T04:23:20;2.90;;;2.53;;
44456;SDS011;30159;49.316;8.558;2023-05-29T04:25:46;4.80;;;2.53;;
44456;SDS011;30159;49.316;8.558;2023-05-29T04:28:15;2.90;;;2.70;;
44456;SDS011;30159;49.316;8.558;2023-05-29T04:30:42;3.23;;;2.57;;
44456;SDS011;30159;49.316;8.558;2023-05-29T04:33:09;5.13;;;2.50;;
44456;SDS011;30159;49.316;8.558;2023-05-29T04:35:38;2.63;;;2.43;;
44456;SDS011;30159;49.316;8.558;2023-05-29T04:38:08;3.80;;;2.73;;
44456;SDS011;30159;49.316;8.558;2023-05-29T04:40:34;3.10;;;2.90;;
44456;SDS011;30159;49.316;8.558;2023-05-29T04:43:02;5.73;;;2.70;;
44456;SDS011;30159;49.316;8.558;2023-05-29T04:45:30;6.13;;;3.00;;
44456;SDS011;30159;49.316;8.558;2023-05-29T04:47:56;4.47;;;2.60;;
44456;SDS011;30159;49.316;8.558;2023-05-29T04:50:23;2.67;;;2.33;;
44456;SDS011;30159;49.316;8.558;2023-05-29T04:52:52;3.20;;;2.90;;
44456;SDS011;30159;49.316;8.558;2023-05-29T04:55:19;3.43;;;2.60;;
44456;SDS011;30159;49.316;8.558;2023-05-29T04:57:45;3.60;;;3.00;;
44456;SDS011;30159;49.316;8.558;2023-05-29T05:00:12;3.33;;;2.60;;
44456;SDS011;30159;49.316;8.558;2023-05-29T05:02:40;4.13;;;2.53;;
44456;SDS011;30159;49.316;8.558;2023-05-29T05:05:08;2.37;;;2.17;;
44456;SDS011;30159;49.316;8.558;2023-05-29T05:07:35;2.60;;;2.40;;
44456;SDS011;30159;49.316;8.558;2023-05-29T05:10:03;2.33;;;2.17;;
44456;SDS011;30159;49.316;8.558;2023-05-29T05:12:30;3.97;;;2.77;;
44456;SDS011;30159;49.316;8.558;2023-05-29T05:14:57;2.67;;;2.30;;
44456;SDS011;30159;49.316;8.558;2023-05-29T05:17:23;3.30;;;2.30;;
44456;SDS011;30159;49.316;8.558;2023-05-29T05:19:50;4.10;;;3.23;;
44456;SDS011;30159;49.316;8.558;2023-05-29T05:22:17;2.30;;;2.10;;
44456;SDS011;30159;49.316;8.558;2023-05-29T05:24:43;3.00;;;2.27;;
44456;SDS011;30159;49.316;8.558;2023-05-29T05:27:11;2.70;;;2.50;;
44456;SDS011;30159;49.316;8.558;2023-05-29T05:29:38;2.13;;;1.93;;
44456;SDS011;30159;49.316;8.558;2023-05-29T05:32:05;2.67;;;2.10;;
44456;SDS011;30159;49.316;8.558;2023-05-29T05:34:32;5.37;;;2.67;;
44456;SDS011;30159;49.316;8.558;2023-05-29T05:36:59;2.50;;;2.30;;
44456;SDS011;30159;49.316;8.558;2023-05-29T05:39:27;2.17;;;1.97;;
44456;SDS011;30159;49.316;8.558;2023-05-29T05:41:54;2.40;;;2.20;;
44456;SDS011;30159;49.316;8.558;2023-05-29T05:44:21;2.73;;;2.53;;
44456;SDS011;30159;49.316;8.558;2023-05-29T05:46:48;2.57;;;2.00;;
44456;SDS011;30159;49.316;8.558;2023-05-29T05:49:15;2.90;;;2.00;;
44456;SDS011;30159;49.316;8.558;2023-05-29T05:51:41;2.17;;;1.97;;
44456;SDS011;30159;49.316;8.558;2023-05-29T05:54:08;2.53;;;2.30;;
44456;SDS011;30159;49.316;8.558;2023-05-29T05:56:34;2.80;;;2.00;;
44456;SDS011;30159;49.316;8.558;2023-05-29T05:59:01;2.47;;;2.27;;
44456;SDS011;30159;49.316;8.558;2023-05-29T06:01:29;2.47;;;2.27;;
44456;SDS011;30159;49.316;8.558;2023-05-29T06:03:55;3.10;;;2.10;;
44456;SDS011;30159;49.316;8.558;2023-05-29T06:06:22;2.27;;;2.03;;
44456;SDS011;30159;49.316;8.558;2023-05-29T06:08:49;3.07;;;2.20;;
44456;SDS011;30159;49.316;8.558;2023-05-29T06:11:15;2.50;;;2.30;;
44456;SDS011;30159;49.316;8.558;2023-05-29T06:13:42;2.30;;;2.10;;
44456;SDS011;30159;49.316;8.558;2023-05-29T06:16:09;2.43;;;2.23;;
44456;SDS011;30159;49.316;8.558;2023-05-29T06:18:36;2.00;;;1.80;;
44456;SDS011;30159;49.316;8.558;2023-05-29T06:21:03;2.43;;;2.23;;
44456;SDS011;30159;49.316;8.558;2023-05-29T06:23:32;3.47;;;2.00;;
44456;SDS011;30159;49.316;8.558;2023-05-29T06:26:03;1.97;;;1.87;;
44456;SDS011;30159;49.316;8.558;2023-05-29T06:28:30;2.00;;;1.90;;
44456;SDS011;30159;49.316;8.558;2023-05-29T06:30:56;5.50;;;1.80;;
44456;SDS011;30159;49.316;8.558;2023-05-29T06:33:23;2.70;;;2.50;;
44456;SDS011;30159;49.316;8.558;2023-05-29T06:35:51;3.00;;;2.47;;
44456;SDS011;30159;49.316;8.558;2023-05-29T06:38:18;2.07;;;1.97;;
44456;SDS011;30159;49.316;8.558;2023-05-29T06:40:44;2.30;;;2.10;;
44456;SDS011;30159;49.316;8.558;2023-05-29T06:43:11;2.10;;;2.00;;
44456;SDS011;30159;49.316;8.558;2023-05-29T06:45:37;2.40;;;2.20;;
44456;SDS011;30159;49.316;8.558;2023-05-29T06:48:04;6.60;;;2.00;;
44456;SDS011;30159;49.316;8.558;2023-05-29T06:50:30;5.57;;;2.43;;
44456;SDS011;30159;49.316;8.558;2023-05-29T06:53:00;3.40;;;2.00;;
44456;SDS011;30159;49.316;8.558;2023-05-29T06:55:27;2.47;;;2.27;;
44456;SDS011;30159;49.316;8.558;2023-05-29T06:57:54;2.10;;;1.80;;
44456;SDS011;30159;49.316;8.558;2023-05-29T07:00:21;1.70;;;1.60;;
44456;SDS011;30159;49.316;8.558;2023-05-29T07:02:48;2.53;;;1.80;;
44456;SDS011;30159;49.316;8.558;2023-05-29T07:05:16;4.23;;;2.53;;
44456;SDS011;30159;49.316;8.558;2023-05-29T07:07:42;2.37;;;2.17;;
44456;SDS011;30159;49.316;8.558;2023-05-29T07:10:10;2.37;;;2.23;;
44456;SDS011;30159;49.316;8.558;2023-05-29T07:12:37;2.23;;;2.10;;
44456;SDS011;30159;49.316;8.558;2023-05-29T07:15:04;2.53;;;2.33;;
44456;SDS011;30159;49.316;8.558;2023-05-29T07:17:31;2.63;;;2.10;;
44456;SDS011;30159;49.316;8.558;2023-05-29T07:19:57;3.03;;;1.83;;
44456;SDS011;30159;49.316;8.558;2023-05-29T07:22:24;2.40;;;1.97;;
44456;SDS011;30159;49.316;8.558;2023-05-29T07:24:50;1.90;;;1.80;;
44456;SDS011;30159;49.316;8.558;2023-05-29T07:27:18;2.17;;;2.07;;
44456;SDS011;30159;49.316;8.558;2023-05-29T07:29:45;2.13;;;1.97;;
44456;SDS011;30159;49.316;8.558;2023-05-29T07:32:11;1.90;;;1.80;;
44456;SDS011;30159;49.316;8.558;2023-05-29T07:34:38;2.83;;;1.97;;
44456;SDS011;30159;49.316;8.558;2023-05-29T07:37:05;1.83;;;1.73;;
44456;SDS011;30159;49.316;8.558;2023-05-29T07:39:34;2.60;;;2.40;;
44456;SDS011;30159;49.316;8.558;2023-05-29T07:42:01;1.80;;;1.70;;
44456;SDS011;30159;49.316;8.558;2023-05-29T07:44:29;2.00;;;1.90;;
44456;SDS011;30159;49.316;8.558;2023-05-29T07:46:56;3.67;;;1.73;;
44456;SDS011;30159;49.316;8.558;2023-05-29T07:49:22;3.07;;;2.13;;
44456;SDS011;30159;49.316;8.558;2023-05-29T07:51:49;2.70;;;2.00;;
44456;SDS011;30159;49.316;8.558;2023-05-29T07:54:16;2.80;;;1.83;;
44456;SDS011;30159;49.316;8.558;2023-05-29T07:56:45;1.93;;;1.83;;
44456;SDS011;30159;49.316;8.558;2023-05-29T07:59:12;2.23;;;1.97;;
44456;SDS011;30159;49.316;8.558;2023-05-29T08:01:40;3.23;;;2.03;;
44456;SDS011;30159;49.316;8.558;2023-05-29T08:04:06;2.30;;;2.20;;
44456;SDS011;30159;49.316;8.558;2023-05-29T08:06:33;2.00;;;1.90;;
44456;SDS011;30159;49.316;8.558;2023-05-29T08:08:59;2.57;;;2.37;;
44456;SDS011;30159;49.316;8.558;2023-05-29T08:11:26;2.40;;;2.00;;
44456;SDS011;30159;49.316;8.558;2023-05-29T08:13:53;3.33;;;2.20;;
44456;SDS011;30159;49.316;8.558;2023-05-29T08:16:19;2.20;;;1.97;;
44456;SDS011;30159;49.316;8.558;2023-05-29T08:18:48;2.90;;;1.90;;
44456;SDS011;30159;49.316;8.558;2023-05-29T08:21:15;2.33;;;2.23;;
44456;SDS011;30159;49.316;8.558;2023-05-29T08:23:42;2.63;;;1.90;;
44456;SDS011;30159;49.316;8.558;2023-05-29T08:26:08;2.40;;;2.20;;
44456;SDS011;30159;49.316;8.558;2023-05-29T08:28:35;2.40;;;2.20;;
44456;SDS011;30159;49.316;8.558;2023-05-29T08:31:01;2.60;;;1.97;;
44456;SDS011;30159;49.316;8.558;2023-05-29T08:33:28;2.00;;;1.80;;
44456;SDS011;30159;49.316;8.558;2023-05-29T08:35:58;3.50;;;2.00;;
44456;SDS011;30159;49.316;8.558;2023-05-29T08:38:24;4.17;;;1.80;;
44456;SDS011;30159;49.316;8.558;2023-05-29T08:40:51;2.43;;;1.80;;
44456;SDS011;30159;49.316;8.558;2023-05-29T08:43:19;2.47;;;2.17;;
44456;SDS011;30159;49.316;8.558;2023-05-29T08:45:50;2.10;;;1.90;;
44456;SDS011;30159;49.316;8.558;2023-05-29T08:48:19;4.00;;;2.17;;
44456;SDS011;30159;49.316;8.558;2023-05-29T08:50:49;2.10;;;2.00;;
44456;SDS011;30159;49.316;8.558;2023-05-29T08:53:20;2.13;;;1.93;;
44456;SDS011;30159;49.316;8.558;2023-05-29T08:55:47;2.40;;;1.70;;
44456;SDS011;30159;49.316;8.558;2023-05-29T08:58:16;2.87;;;2.10;;
44456;SDS011;30159;49.316;8.558;2023-05-29T09:00:44;2.50;;;2.17;;
44456;SDS011;30159;49.316;8.558;2023-05-29T09:03:11;2.07;;;1.93;;
44456;SDS011;30159;49.316;8.558;2023-05-29T09:05:38;2.60;;;2.40;;
44456;SDS011;30159;49.316;8.558;2023-05-29T09:08:06;2.80;;;1.90;;
44456;SDS011;30159;49.316;8.558;2023-05-29T09:10:35;6.37;;;1.90;;
44456;SDS011;30159;49.316;8.558;2023-05-29T09:13:01;1.60;;;1.50;;
44456;SDS011;30159;49.316;8.558;2023-05-29T09:15:28;2.77;;;2.00;;
44456;SDS011;30159;49.316;8.558;2023-05-29T09:17:57;2.23;;;2.03;;
44456;SDS011;30159;49.316;8.558;2023-05-29T09:20:24;2.13;;;1.93;;
44456;SDS011;30159;49.316;8.558;2023-05-29T09:22:52;2.00;;;1.90;;
44456;SDS011;30159;49.316;8.558;2023-05-29T09:25:20;4.47;;;2.07;;
44456;SDS011;30159;49.316;8.558;2023-05-29T09:33:03;5.73;;;2.03;;
44456;SDS011;30159;49.316;8.558;2023-05-29T09:35:34;1.93;;;1.83;;
44456;SDS011;30159;49.316;8.558;2023-05-29T09:38:02;1.93;;;1.70;;
44456;SDS011;30159;49.316;8.558;2023-05-29T09:40:29;2.00;;;1.80;;
44456;SDS011;30159;49.316;8.558;2023-05-29T09:43:02;2.20;;;2.00;;
44456;SDS011;30159;49.316;8.558;2023-05-29T09:45:32;1.80;;;1.70;;
44456;SDS011;30159;49.316;8.558;2023-05-29T09:47:59;2.50;;;1.60;;
44456;SDS011;30159;49.316;8.558;2023-05-29T09:50:26;2.80;;;1.90;;
44456;SDS011;30159;49.316;8.558;2023-05-29T09:52:53;1.83;;;1.73;;
44456;SDS011;30159;49.316;8.558;2023-05-29T09:55:20;1.83;;;1.73;;
44456;SDS011;30159;49.316;8.558;2023-05-29T09:57:46;3.87;;;2.00;;
44456;SDS011;30159;49.316;8.558;2023-05-29T10:00:15;1.93;;;1.73;;
44456;SDS011;30159;49.316;8.558;2023-05-29T10:02:44;1.90;;;1.63;;
44456;SDS011;30159;49.316;8.558;2023-05-29T10:05:14;3.73;;;2.03;;
44456;SDS011;30159;49.316;8.558;2023-05-29T10:07:43;1.73;;;1.63;;
44456;SDS011;30159;49.316;8.558;2023-05-29T10:10:12;3.37;;;1.83;;
44456;SDS011;30159;49.316;8.558;2023-05-29T10:12:41;1.90;;;1.80;;
44456;SDS011;30159;49.316;8.558;2023-05-29T10:15:11;2.80;;;1.83;;
44456;SDS011;30159;49.316;8.558;2023-05-29T10:17:42;2.23;;;1.70;;
44456;SDS011;30159;49.316;8.558;2023-05-29T10:20:16;2.13;;;1.93;;
44456;SDS011;30159;49.316;8.558;2023-05-29T10:22:45;4.00;;;1.80;;
44456;SDS011;30159;49.316;8.558;2023-05-29T10:25:13;2.17;;;2.00;;
44456;SDS011;30159;49.316;8.558;2023-05-29T10:27:43;2.23;;;2.03;;
44456;SDS011;30159;49.316;8.558;2023-05-29T10:30:12;3.70;;;1.97;;
44456;SDS011;30159;49.316;8.558;2023-05-29T10:32:52;1.80;;;1.70;;
44456;SDS011;30159;49.316;8.558;2023-05-29T10:35:30;2.60;;;2.10;;
44456;SDS011;30159;49.316;8.558;2023-05-29T10:38:02;2.77;;;2.30;;
44456;SDS011;30159;49.316;8.558;2023-05-29T10:40:37;2.67;;;1.90;;
44456;SDS011;30159;49.316;8.558;2023-05-29T10:43:04;2.63;;;2.13;;
44456;SDS011;30159;49.316;8.558;2023-05-29T10:45:49;2.17;;;1.90;;
44456;SDS011;30159;49.316;8.558;2023-05-29T10:51:07;2.07;;;1.80;;
44456;SDS011;30159;49.316;8.558;2023-05-29T10:53:34;2.30;;;2.10;;
44456;SDS011;30159;49.316;8.558;2023-05-29T10:56:07;2.97;;;2.00;;
44456;SDS011;30159;49.316;8.558;2023-05-29T10:58:36;2.30;;;2.20;;
44456;SDS011;30159;49.316;8.558;2023-05-29T11:01:05;1.77;;;1.67;;
44456;SDS011;30159;49.316;8.558;2023-05-29T11:03:34;2.40;;;2.20;;
44456;SDS011;30159;49.316;8.558;2023-05-29T11:06:03;1.93;;;1.83;;
44456;SDS011;30159;49.316;8.558;2023-05-29T11:08:33;2.00;;;1.90;;
44456;SDS011;30159;49.316;8.558;2023-05-29T11:11:00;2.17;;;2.00;;
44456;SDS011;30159;49.316;8.558;2023-05-29T11:13:31;2.00;;;1.90;;
44456;SDS011;30159;49.316;8.558;2023-05-29T11:16:09;2.30;;;2.10;;
44456;SDS011;30159;49.316;8.558;2023-05-29T11:18:45;2.10;;;1.70;;
44456;SDS011;30159;49.316;8.558;2023-05-29T11:21:21;2.20;;;2.00;;
44456;SDS011;30159;49.316;8.558;2023-05-29T11:23:50;2.50;;;2.30;;
44456;SDS011;30159;49.316;8.558;2023-05-29T11:26:17;2.00;;;1.90;;
44456;SDS011;30159;49.316;8.558;2023-05-29T11:28:45;2.17;;;2.03;;
44456;SDS011;30159;49.316;8.558;2023-05-29T11:31:12;2.63;;;2.43;;
44456;SDS011;30159;49.316;8.558;2023-05-29T11:33:41;1.90;;;1.80;;
44456;SDS011;30159;49.316;8.558;2023-05-29T11:36:14;2.37;;;1.90;;
44456;SDS011;30159;49.316;8.558;2023-05-29T11:38:42;1.97;;;1.77;;
44456;SDS011;30159;49.316;8.558;2023-05-29T11:41:09;2.43;;;2.23;;
44456;SDS011;30159;49.316;8.558;2023-05-29T11:43:35;2.20;;;2.00;;
44456;SDS011;30159;49.316;8.558;2023-05-29T11:46:02;3.17;;;2.33;;
44456;SDS011;30159;49.316;8.558;2023-05-29T11:48:28;2.20;;;2.00;;
44456;SDS011;30159;49.316;8.558;2023-05-29T11:50:55;2.20;;;2.00;;
44456;SDS011;30159;49.316;8.558;2023-05-29T11:53:22;2.50;;;1.90;;
44456;SDS011;30159;49.316;8.558;2023-05-29T11:55:50;2.60;;;1.83;;
44456;SDS011;30159;49.316;8.558;2023-05-29T11:58:17;2.63;;;2.20;;
44456;SDS011;30159;49.316;8.558;2023-05-29T12:00:43;3.40;;;1.80;;
44456;SDS011;30159;49.316;8.558;2023-05-29T12:03:12;4.23;;;2.10;;
44456;SDS011;30159;49.316;8.558;2023-05-29T12:05:45;2.20;;;2.00;;
44456;SDS011;30159;49.316;8.558;2023-05-29T12:08:13;2.47;;;2.27;;
44456;SDS011;30159;49.316;8.558;2023-05-29T12:10:46;2.07;;;1.60;;
44456;SDS011;30159;49.316;8.558;2023-05-29T12:13:14;2.23;;;2.03;;
44456;SDS011;30159;49.316;8.558;2023-05-29T12:15:42;2.90;;;1.87;;
44456;SDS011;30159;49.316;8.558;2023-05-29T12:18:08;2.47;;;2.27;;
44456;SDS011;30159;49.316;8.558;2023-05-29T12:20:36;2.97;;;2.77;;
44456;SDS011;30159;49.316;8.558;2023-05-29T12:23:02;1.90;;;1.80;;
44456;SDS011;30159;49.316;8.558;2023-05-29T12:25:30;2.03;;;1.90;;
44456;SDS011;30159;49.316;8.558;2023-05-29T12:28:02;2.40;;;1.87;;
44456;SDS011;30159;49.316;8.558;2023-05-29T12:30:30;2.03;;;1.80;;
44456;SDS011;30159;49.316;8.558;2023-05-29T12:32:57;2.10;;;1.63;;
44456;SDS011;30159;49.316;8.558;2023-05-29T12:35:25;1.67;;;1.57;;
44456;SDS011;30159;49.316;8.558;2023-05-29T12:37:53;3.00;;;1.40;;
44456;SDS011;30159;49.316;8.558;2023-05-29T12:40:21;2.17;;;2.00;;
44456;SDS011;30159;49.316;8.558;2023-05-29T12:42:52;2.27;;;2.00;;
44456;SDS011;30159;49.316;8.558;2023-05-29T12:45:21;2.47;;;2.10;;
44456;SDS011;30159;49.316;8.558;2023-05-29T12:47:53;1.83;;;1.70;;
44456;SDS011;30159;49.316;8.558;2023-05-29T12:50:21;1.70;;;1.57;;
44456;SDS011;30159;49.316;8.558;2023-05-29T12:52:52;1.70;;;1.60;;
44456;SDS011;30159;49.316;8.558;2023-05-29T12:55:20;1.87;;;1.73;;
44456;SDS011;30159;49.316;8.558;2023-05-29T12:57:46;2.13;;;2.03;;
44456;SDS011;30159;49.316;8.558;2023-05-29T13:00:13;1.97;;;1.80;;
44456;SDS011;30159;49.316;8.558;2023-05-29T13:02:40;1.57;;;1.47;;
44456;SDS011;30159;49.316;8.558;2023-05-29T13:05:08;1.80;;;1.70;;
44456;SDS011;30159;49.316;8.558;2023-05-29T13:07:35;1.70;;;1.60;;
44456;SDS011;30159;49.316;8.558;2023-05-29T13:10:02;1.97;;;1.80;;
44456;SDS011;30159;49.316;8.558;2023-05-29T13:12:28;2.63;;;1.80;;
44456;SDS011;30159;49.316;8.558;2023-05-29T13:14:55;2.10;;;2.00;;
44456;SDS011;30159;49.316;8.558;2023-05-29T13:17:21;2.30;;;2.10;;
44456;SDS011;30159;49.316;8.558;2023-05-29T13:19:48;1.77;;;1.67;;
44456;SDS011;30159;49.316;8.558;2023-05-29T13:22:16;1.80;;;1.70;;
44456;SDS011;30159;49.316;8.558;2023-05-29T13:24:43;1.80;;;1.70;;
44456;SDS011;30159;49.316;8.558;2023-05-29T13:27:10;1.80;;;1.70;;
44456;SDS011;30159;49.316;8.558;2023-05-29T13:29:38;2.50;;;2.00;;
44456;SDS011;30159;49.316;8.558;2023-05-29T13:32:06;1.80;;;1.70;;
44456;SDS011;30159;49.316;8.558;2023-05-29T13:34:33;1.73;;;1.60;;
44456;SDS011;30159;49.316;8.558;2023-05-29T13:37:00;2.90;;;1.70;;
44456;SDS011;30159;49.316;8.558;2023-05-29T13:39:28;1.90;;;1.80;;
44456;SDS011;30159;49.316;8.558;2023-05-29T13:41:55;3.93;;;1.90;;
44456;SDS011;30159;49.316;8.558;2023-05-29T13:44:21;2.70;;;2.30;;
44456;SDS011;30159;49.316;8.558;2023-05-29T13:46:48;1.73;;;1.53;;
44456;SDS011;30159;49.316;8.558;2023-05-29T13:49:15;2.00;;;1.90;;
44456;SDS011;30159;49.316;8.558;2023-05-29T13:51:42;2.27;;;1.90;;
44456;SDS011;30159;49.316;8.558;2023-05-29T13:54:11;1.90;;;1.70;;
44456;SDS011;30159;49.316;8.558;2023-05-29T13:56:39;2.30;;;1.73;;
44456;SDS011;30159;49.316;8.558;2023-05-29T13:59:05;1.90;;;1.70;;
44456;SDS011;30159;49.316;8.558;2023-05-29T14:01:32;2.10;;;1.90;;
44456;SDS011;30159;49.316;8.558;2023-05-29T14:03:59;1.60;;;1.50;;
44456;SDS011;30159;49.316;8.558;2023-05-29T14:06:25;1.70;;;1.60;;
44456;SDS011;30159;49.316;8.558;2023-05-29T14:08:52;1.70;;;1.60;;
44456;SDS011;30159;49.316;8.558;2023-05-29T14:11:20;1.73;;;1.63;;
44456;SDS011;30159;49.316;8.558;2023-05-29T14:13:48;1.97;;;1.70;;
44456;SDS011;30159;49.316;8.558;2023-05-29T14:16:14;2.33;;;1.80;;
44456;SDS011;30159;49.316;8.558;2023-05-29T14:18:41;1.53;;;1.43;;
44456;SDS011;30159;49.316;8.558;2023-05-29T14:21:08;1.70;;;1.60;;
44456;SDS011;30159;49.316;8.558;2023-05-29T14:23:35;1.70;;;1.60;;
44456;SDS011;30159;49.316;8.558;2023-05-29T14:26:02;1.73;;;1.63;;
44456;SDS011;30159;49.316;8.558;2023-05-29T14:28:28;2.40;;;1.90;;
44456;SDS011;30159;49.316;8.558;2023-05-29T14:30:56;2.83;;;1.70;;
44456;SDS011;30159;49.316;8.558;2023-05-29T14:33:23;1.87;;;1.67;;
44456;SDS011;30159;49.316;8.558;2023-05-29T14:35:50;2.43;;;1.60;;
44456;SDS011;30159;49.316;8.558;2023-05-29T14:38:16;1.90;;;1.67;;
44456;SDS011;30159;49.316;8.558;2023-05-29T14:40:43;1.53;;;1.43;;
44456;SDS011;30159;49.316;8.558;2023-05-29T14:43:10;1.70;;;1.60;;
44456;SDS011;30159;49.316;8.558;2023-05-29T14:45:36;1.70;;;1.60;;
44456;SDS011;30159;49.316;8.558;2023-05-29T14:48:04;3.20;;;1.40;;
44456;SDS011;30159;49.316;8.558;2023-05-29T14:50:30;4.20;;;1.53;;
44456;SDS011;30159;49.316;8.558;2023-05-29T14:52:57;1.40;;;1.30;;
44456;SDS011;30159;49.316;8.558;2023-05-29T14:55:23;2.20;;;2.00;;
44456;SDS011;30159;49.316;8.558;2023-05-29T14:57:50;5.17;;;1.67;;
44456;SDS011;30159;49.316;8.558;2023-05-29T15:00:17;1.50;;;1.40;;